x

West Sea Otter (46204) Wave Buoy

12:00 - Sun 25th Sep 2016 All times are PDT. -7 hours from GMT.

  • Sig Wave height 9.8ft
  • Peak Period 8s
  • Wind
    25mph, 31mph gusts
  • Sea Temp 52°f
  • Ar Temp 54°f
  • Sea Pressure 1022.4mb
  • West Sea Otter
  • West Sea Otter

More Historic Weather Station data

Upgrade to MSW Pro to gain access to the past 30 days of data for over 8000 Wavebouys and Weather Stations around the globe.

Join Pro

Comparision Forecast

View Surf forecast
   
Dom 09/25 12:00 10ft 8s 25 31 mph 1022.4mb 52f 54f
11:00 10ft 9s 27 36 mph 1021.7mb 52f 53f
10:00 9.5ft 10s 31 38 mph 1021.3mb 52f 53f
9:00 9.5ft 11s 31 36 mph 1021.2mb 52f 53f
8:00 10ft 10s 25 31 mph 1021.6mb 52f 52f
7:00 10.5ft 10s 27 31 mph 1021.3mb 52f 53f
6:00 10.5ft 7s 27 31 mph 1021.2mb 52f 54f
5:00 11.5ft 7s 31 40 mph 1020.6mb 52f 55f
4:00 13ft 7s 31 43 mph 1020.3mb 52f 55f
3:00 13.5ft 9s 29 38 mph 1019.3mb 52f 55f
2:00 13.5ft 7s 31 40 mph 1018.4mb 53f 54f
1:00 16ft 8s 31 40 mph 1017.8mb 53f 54f
12:00 15.5ft 8s 31 43 mph 1017.3mb 53f 54f
Sáb 09/24 11:00 14ft 8s 34 43 mph 1016.9mb 53f 54f
10:00 11ft 7s 36 45 mph 1016.1mb 53f 54f
9:00 11ft 6s 38 49 mph 1015.9mb 53f 54f
8:00 11ft 7s 38 47 mph 1016.3mb 53f 53f
7:00 9ft 10s 36 47 mph 1017.3mb 53f 53f
6:00 8ft 10s 36 45 mph 1018mb 53f 52f
5:00 8ft 11s 31 38 mph 1019.6mb 53f 52f
4:00 7ft 10s 29 38 mph 1020.3mb 53f 53f
3:00 7ft 11s 25 29 mph 1021.5mb 53f 53f
2:00 7ft 11s 27 31 mph 1021.5mb 53f 53f
1:00 7ft 11s 25 31 mph 1021.7mb 53f 53f
12:00 7.5ft 12s 25 31 mph 1022.2mb 53f 53f
11:00 7.5ft 11s 25 29 mph 1022.9mb 53f 53f
10:00 8ft 12s 20 25 mph 1022.9mb 53f 53f
9:00 8.5ft 11s 18 22 mph 1023.4mb 54f 53f
8:00 9ft 11s 18 22 mph 1023.6mb 54f 53f
7:00 9.5ft 11s 16 18 mph 1023.9mb 54f 53f
6:00 9ft 10s 16 20 mph 1023.2mb 54f 53f
5:00 9.5ft 11s 11 16 mph 1023.2mb 54f 54f
4:00 7.5ft 10s 11 13 mph 1023.5mb 53f 54f
3:00 7.5ft 11s 9 11 mph 1023.4mb 53f 54f
2:00 7ft 11s 9 11 mph 1022.9mb 54f 54f
1:00 7ft 12s 7 9 mph 1022.9mb 54f 54f
12:00 6.5ft 12s 7 9 mph 1022.3mb 54f 55f
Sex 09/23 11:00 7.5ft 12s 7 9 mph 1021.5mb 54f 55f
10:00 7.5ft 12s 7 9 mph 1020.9mb 54f 54f
9:00 8ft 12s 4 7 mph 1020.3mb 54f 55f
8:00 9ft 12s 9 11 mph 1020mb 54f 55f
7:00 11ft 12s 9 11 mph 1019.1mb 54f 55f
6:00 11ft 12s 9 13 mph 1017.9mb 54f 56f
5:00 12.5ft 11s 7 9 mph 1017.5mb 54f 56f
4:00 12.5ft 12s 7 9 mph 1017mb 54f 56f
3:00 11.5ft 12s 7 11 mph 1016.7mb 54f 56f
2:00 11.5ft 11s 7 9 mph 1016mb 54f 56f
1:00 11ft 11s 2 7 mph 1015.4mb 55f 56f
12:00 10ft 12s 2 4 mph 1014.7mb 54f 56f
11:00 9ft 12s 4 7 mph 1013.9mb 54f 55f
10:00 10.5ft 12s 7
mph
1012.6mb 53f 55f
9:00 11ft 12s 7 11 mph 1011.6mb 53f 54f
8:00 11.5ft 12s 9 11 mph 1010.7mb 53f 53f
7:00 12ft 13s 16 20 mph 1009.9mb 53f 52f
6:00 13.5ft 13s 22 29 mph 1009.2mb 53f 51f
5:00 15.5ft 13s 27 36 mph 1008.2mb 53f 51f
4:00 16.5ft 12s 34 43 mph 1006.9mb 53f 52f
3:00 16.5ft 11s 38 47 mph 1005.5mb 53f 53f
2:00 15.5ft 12s 36 47 mph 1006.1mb 54f 53f
12:00 14ft 12s 29 40 mph 1006.2mb 54f 54f
Qui 09/22 11:00 13ft 8s 29 36 mph 1006mb 54f 53f
10:00 13ft 12s 29 36 mph 1005.7mb 54f 53f
9:00 13ft 10s 29 36 mph 1005.4mb 54f 54f
8:00 11.5ft 7s 29 36 mph 1005.8mb 54f 55f
7:00 9.5ft 6s 31 40 mph 1006.2mb 55f 55f
6:00 8ft 5s 31 38 mph 1007.2mb 55f 56f
5:00 6ft 5s 31 40 mph 1008.4mb 55f 56f
4:00 4.5ft 4s 29 36 mph 1009.8mb 55f 56f
3:00 3.5ft 4s 25 29 mph 1011.1mb 55f 55f
2:00 3.5ft 4s 20 25 mph 1011.9mb 55f 54f
1:00 3ft 4s 20 25 mph 1013mb 55f 53f
12:00 2.5ft 4s 18 22 mph 1013.6mb 55f 51f
11:00 2ft 8s 16 20 mph 1014.2mb 55f 51f
10:00 2ft 8s 16 18 mph 1014.2mb 55f 51f
9:00 2ft 8s 11 16 mph 1014.3mb 55f 50f
8:00 2.5ft 8s 9 11 mph 1015mb 55f 50f
7:00 2.5ft 8s 7 9 mph 1015mb 55f 50f
6:00 2.5ft 8s 9 11 mph 1015mb 55f 51f
5:00 2.5ft 8s 2 4 mph 1015.9mb 55f 51f
4:00 2.5ft 8s 4 9 mph 1016.1mb 55f 52f
3:00 2.5ft 8s 4 9 mph 1016.5mb 55f 52f
2:00 2.5ft 8s 4 9 mph 1016.9mb 55f 52f
1:00 2.5ft 8s 7 9 mph 1017.4mb 55f 52f
12:00 3ft 8s 9 13 mph 1017.5mb 55f 53f
Qua 09/21 11:00 2.5ft 9s 11 16 mph 1017.8mb 55f 53f
10:00 3ft 9s 9 11 mph 1017.9mb 55f 52f
9:00 3ft 10s 11 16 mph 1018.3mb 55f 52f